sensor_id;sensor_type;location;lat;lon;timestamp;temperature;humidity
29281;DHT22;25048;49.590;11.026;2023-07-31T00:00:46;15.70;99.90
29281;DHT22;25048;49.590;11.026;2023-07-31T00:03:13;15.70;99.90
29281;DHT22;25048;49.590;11.026;2023-07-31T00:05:41;15.70;99.90
29281;DHT22;25048;49.590;11.026;2023-07-31T00:08:09;15.70;99.90
29281;DHT22;25048;49.590;11.026;2023-07-31T00:10:36;15.70;99.90
29281;DHT22;25048;49.590;11.026;2023-07-31T00:13:04;15.60;99.90
29281;DHT22;25048;49.590;11.026;2023-07-31T00:15:31;15.60;99.90
29281;DHT22;25048;49.590;11.026;2023-07-31T00:17:59;15.60;99.90
29281;DHT22;25048;49.590;11.026;2023-07-31T00:20:27;15.60;99.90
29281;DHT22;25048;49.590;11.026;2023-07-31T00:22:55;15.60;99.90
29281;DHT22;25048;49.590;11.026;2023-07-31T00:25:22;15.60;99.90
29281;DHT22;25048;49.590;11.026;2023-07-31T00:27:50;15.60;99.90
29281;DHT22;25048;49.590;11.026;2023-07-31T00:30:17;15.60;99.90
29281;DHT22;25048;49.590;11.026;2023-07-31T00:32:45;15.50;99.90
29281;DHT22;25048;49.590;11.026;2023-07-31T00:35:12;15.50;99.90
29281;DHT22;25048;49.590;11.026;2023-07-31T00:37:40;15.60;99.90
29281;DHT22;25048;49.590;11.026;2023-07-31T00:40:08;15.60;99.90
29281;DHT22;25048;49.590;11.026;2023-07-31T00:42:36;15.60;99.90
29281;DHT22;25048;49.590;11.026;2023-07-31T00:45:03;15.50;99.90
29281;DHT22;25048;49.590;11.026;2023-07-31T00:47:31;15.50;99.90
29281;DHT22;25048;49.590;11.026;2023-07-31T00:49:59;15.50;99.90
29281;DHT22;25048;49.590;11.026;2023-07-31T00:52:26;15.60;99.90
29281;DHT22;25048;49.590;11.026;2023-07-31T00:54:54;15.60;99.90
29281;DHT22;25048;49.590;11.026;2023-07-31T00:57:21;15.60;99.90
29281;DHT22;25048;49.590;11.026;2023-07-31T00:59:49;15.60;99.90
29281;DHT22;25048;49.590;11.026;2023-07-31T01:02:16;15.60;99.90
29281;DHT22;25048;49.590;11.026;2023-07-31T01:04:44;15.70;99.90
29281;DHT22;25048;49.590;11.026;2023-07-31T01:07:26;15.70;99.90
29281;DHT22;25048;49.590;11.026;2023-07-31T01:10:02;15.70;99.90
29281;DHT22;25048;49.590;11.026;2023-07-31T01:12:28;15.70;99.90
29281;DHT22;25048;49.590;11.026;2023-07-31T01:15:10;15.80;99.90
29281;DHT22;25048;49.590;11.026;2023-07-31T01:17:43;15.80;99.90
29281;DHT22;25048;49.590;11.026;2023-07-31T01:20:22;15.80;99.90
29281;DHT22;25048;49.590;11.026;2023-07-31T01:26:12;15.80;99.90
29281;DHT22;25048;49.590;11.026;2023-07-31T01:28:56;15.80;99.90
29281;DHT22;25048;49.590;11.026;2023-07-31T01:31:25;15.80;99.90
29281;DHT22;25048;49.590;11.026;2023-07-31T01:33:58;15.80;99.90
29281;DHT22;25048;49.590;11.026;2023-07-31T01:36:24;15.80;99.90
29281;DHT22;25048;49.590;11.026;2023-07-31T01:38:52;15.80;99.90
29281;DHT22;25048;49.590;11.026;2023-07-31T01:41:19;15.90;99.90
29281;DHT22;25048;49.590;11.026;2023-07-31T01:43:47;15.90;99.90
29281;DHT22;25048;49.590;11.026;2023-07-31T01:46:15;15.90;99.90
29281;DHT22;25048;49.590;11.026;2023-07-31T01:48:42;15.90;99.90
29281;DHT22;25048;49.590;11.026;2023-07-31T01:51:10;15.90;99.90
29281;DHT22;25048;49.590;11.026;2023-07-31T01:53:37;15.90;99.90
29281;DHT22;25048;49.590;11.026;2023-07-31T01:56:05;15.90;99.90
29281;DHT22;25048;49.590;11.026;2023-07-31T01:58:32;16.00;99.90
29281;DHT22;25048;49.590;11.026;2023-07-31T02:01:00;16.00;99.90
29281;DHT22;25048;49.590;11.026;2023-07-31T02:03:27;16.00;99.90
29281;DHT22;25048;49.590;11.026;2023-07-31T02:05:55;16.00;99.90
29281;DHT22;25048;49.590;11.026;2023-07-31T02:08:23;16.00;99.90
29281;DHT22;25048;49.590;11.026;2023-07-31T02:10:51;16.00;99.90
29281;DHT22;25048;49.590;11.026;2023-07-31T02:13:19;16.00;99.90
29281;DHT22;25048;49.590;11.026;2023-07-31T02:15:47;16.00;99.90
29281;DHT22;25048;49.590;11.026;2023-07-31T02:18:15;16.00;99.90
29281;DHT22;25048;49.590;11.026;2023-07-31T02:20:42;16.00;99.90
29281;DHT22;25048;49.590;11.026;2023-07-31T02:23:11;16.00;99.90
29281;DHT22;25048;49.590;11.026;2023-07-31T02:25:39;16.00;99.90
29281;DHT22;25048;49.590;11.026;2023-07-31T02:28:06;16.00;99.90
29281;DHT22;25048;49.590;11.026;2023-07-31T02:30:34;16.00;99.90
29281;DHT22;25048;49.590;11.026;2023-07-31T02:33:01;16.00;99.90
29281;DHT22;25048;49.590;11.026;2023-07-31T02:35:29;16.10;99.90
29281;DHT22;25048;49.590;11.026;2023-07-31T02:37:56;16.20;99.90
29281;DHT22;25048;49.590;11.026;2023-07-31T02:40:24;16.20;99.90
29281;DHT22;25048;49.590;11.026;2023-07-31T02:42:51;16.30;99.90
29281;DHT22;25048;49.590;11.026;2023-07-31T02:45:19;16.30;99.90
29281;DHT22;25048;49.590;11.026;2023-07-31T02:47:46;16.30;99.90
29281;DHT22;25048;49.590;11.026;2023-07-31T02:50:14;16.30;99.90
29281;DHT22;25048;49.590;11.026;2023-07-31T02:52:41;16.30;99.90
29281;DHT22;25048;49.590;11.026;2023-07-31T02:55:09;16.30;99.90
29281;DHT22;25048;49.590;11.026;2023-07-31T02:57:36;16.20;99.90
29281;DHT22;25048;49.590;11.026;2023-07-31T03:00:04;16.20;99.90
29281;DHT22;25048;49.590;11.026;2023-07-31T03:02:33;16.20;99.90
29281;DHT22;25048;49.590;11.026;2023-07-31T03:05:00;16.20;99.90
29281;DHT22;25048;49.590;11.026;2023-07-31T03:07:28;16.20;99.90
29281;DHT22;25048;49.590;11.026;2023-07-31T03:09:56;16.20;99.90
29281;DHT22;25048;49.590;11.026;2023-07-31T03:12:24;16.20;99.90
29281;DHT22;25048;49.590;11.026;2023-07-31T03:14:51;16.20;99.90
29281;DHT22;25048;49.590;11.026;2023-07-31T03:17:19;16.20;99.90
29281;DHT22;25048;49.590;11.026;2023-07-31T03:19:47;16.20;99.90
29281;DHT22;25048;49.590;11.026;2023-07-31T03:22:14;16.20;99.90
29281;DHT22;25048;49.590;11.026;2023-07-31T03:24:42;16.20;99.90
29281;DHT22;25048;49.590;11.026;2023-07-31T03:27:09;16.20;99.90
29281;DHT22;25048;49.590;11.026;2023-07-31T03:29:37;16.20;99.90
29281;DHT22;25048;49.590;11.026;2023-07-31T03:32:04;16.20;99.90
29281;DHT22;25048;49.590;11.026;2023-07-31T03:34:32;16.20;99.90
29281;DHT22;25048;49.590;11.026;2023-07-31T03:37:00;16.20;99.90
29281;DHT22;25048;49.590;11.026;2023-07-31T03:39:28;16.20;99.90
29281;DHT22;25048;49.590;11.026;2023-07-31T03:41:55;16.20;99.90
29281;DHT22;25048;49.590;11.026;2023-07-31T03:44:23;16.20;99.90
29281;DHT22;25048;49.590;11.026;2023-07-31T03:46:50;16.30;99.90
29281;DHT22;25048;49.590;11.026;2023-07-31T03:49:18;16.30;99.90
29281;DHT22;25048;49.590;11.026;2023-07-31T03:51:45;16.30;99.90
29281;DHT22;25048;49.590;11.026;2023-07-31T03:54:13;16.30;99.90
29281;DHT22;25048;49.590;11.026;2023-07-31T03:56:40;16.30;99.90
29281;DHT22;25048;49.590;11.026;2023-07-31T03:59:08;16.30;99.90
29281;DHT22;25048;49.590;11.026;2023-07-31T04:01:35;16.30;99.90
29281;DHT22;25048;49.590;11.026;2023-07-31T04:04:03;16.30;99.90
29281;DHT22;25048;49.590;11.026;2023-07-31T04:06:31;16.30;99.90
29281;DHT22;25048;49.590;11.026;2023-07-31T04:08:59;16.30;99.90
29281;DHT22;25048;49.590;11.026;2023-07-31T04:11:26;16.40;99.90
29281;DHT22;25048;49.590;11.026;2023-07-31T04:13:54;16.30;99.90
29281;DHT22;25048;49.590;11.026;2023-07-31T04:16:21;16.30;99.90
29281;DHT22;25048;49.590;11.026;2023-07-31T04:18:49;16.30;99.90
29281;DHT22;25048;49.590;11.026;2023-07-31T04:21:16;16.30;99.90
29281;DHT22;25048;49.590;11.026;2023-07-31T04:23:44;16.30;99.90
29281;DHT22;25048;49.590;11.026;2023-07-31T04:26:11;16.20;99.90
29281;DHT22;25048;49.590;11.026;2023-07-31T04:28:39;16.20;99.90
29281;DHT22;25048;49.590;11.026;2023-07-31T04:31:06;16.20;99.90
29281;DHT22;25048;49.590;11.026;2023-07-31T04:33:35;16.20;99.90
29281;DHT22;25048;49.590;11.026;2023-07-31T04:36:02;16.20;99.90
29281;DHT22;25048;49.590;11.026;2023-07-31T04:38:30;16.20;99.90
29281;DHT22;25048;49.590;11.026;2023-07-31T04:40:58;16.30;99.90
29281;DHT22;25048;49.590;11.026;2023-07-31T04:43:25;16.20;99.90
29281;DHT22;25048;49.590;11.026;2023-07-31T04:45:53;16.20;99.90
29281;DHT22;25048;49.590;11.026;2023-07-31T04:48:20;16.30;99.90
29281;DHT22;25048;49.590;11.026;2023-07-31T04:50:48;16.30;99.90
29281;DHT22;25048;49.590;11.026;2023-07-31T04:53:15;16.30;99.90
29281;DHT22;25048;49.590;11.026;2023-07-31T04:55:43;16.30;99.90
29281;DHT22;25048;49.590;11.026;2023-07-31T04:58:10;16.30;99.90
29281;DHT22;25048;49.590;11.026;2023-07-31T05:00:38;16.40;99.90
29281;DHT22;25048;49.590;11.026;2023-07-31T05:03:05;16.40;99.90
29281;DHT22;25048;49.590;11.026;2023-07-31T05:05:33;16.40;99.90
29281;DHT22;25048;49.590;11.026;2023-07-31T05:08:01;16.40;99.90
29281;DHT22;25048;49.590;11.026;2023-07-31T05:10:28;16.50;99.90
29281;DHT22;25048;49.590;11.026;2023-07-31T05:12:56;16.50;99.90
29281;DHT22;25048;49.590;11.026;2023-07-31T05:15:23;16.60;99.90
29281;DHT22;25048;49.590;11.026;2023-07-31T05:17:51;16.70;99.90
29281;DHT22;25048;49.590;11.026;2023-07-31T05:20:18;16.70;99.90
29281;DHT22;25048;49.590;11.026;2023-07-31T05:22:46;16.70;99.90
29281;DHT22;25048;49.590;11.026;2023-07-31T05:25:13;16.80;99.90
29281;DHT22;25048;49.590;11.026;2023-07-31T05:27:41;16.80;99.90
29281;DHT22;25048;49.590;11.026;2023-07-31T05:30:08;16.90;99.90
29281;DHT22;25048;49.590;11.026;2023-07-31T05:32:36;16.90;99.90
29281;DHT22;25048;49.590;11.026;2023-07-31T05:35:04;16.90;99.90
29281;DHT22;25048;49.590;11.026;2023-07-31T05:37:31;16.90;99.90
29281;DHT22;25048;49.590;11.026;2023-07-31T05:39:59;17.00;99.90
29281;DHT22;25048;49.590;11.026;2023-07-31T05:42:26;17.00;99.90
29281;DHT22;25048;49.590;11.026;2023-07-31T05:44:54;17.00;99.90
29281;DHT22;25048;49.590;11.026;2023-07-31T05:47:22;17.10;99.90
29281;DHT22;25048;49.590;11.026;2023-07-31T05:49:49;17.10;99.90
29281;DHT22;25048;49.590;11.026;2023-07-31T05:52:19;17.10;99.90
29281;DHT22;25048;49.590;11.026;2023-07-31T05:54:46;17.20;99.90
29281;DHT22;25048;49.590;11.026;2023-07-31T05:57:14;17.30;99.90
29281;DHT22;25048;49.590;11.026;2023-07-31T05:59:41;17.30;99.90
29281;DHT22;25048;49.590;11.026;2023-07-31T06:02:09;17.40;99.90
29281;DHT22;25048;49.590;11.026;2023-07-31T06:04:36;17.40;99.90
29281;DHT22;25048;49.590;11.026;2023-07-31T06:07:04;17.40;99.90
29281;DHT22;25048;49.590;11.026;2023-07-31T06:09:31;17.40;99.90
29281;DHT22;25048;49.590;11.026;2023-07-31T06:11:59;17.50;99.90
29281;DHT22;25048;49.590;11.026;2023-07-31T06:14:26;17.40;99.90
29281;DHT22;25048;49.590;11.026;2023-07-31T06:16:54;17.40;99.90
29281;DHT22;25048;49.590;11.026;2023-07-31T06:19:21;17.40;99.90
29281;DHT22;25048;49.590;11.026;2023-07-31T06:21:49;17.40;99.90
29281;DHT22;25048;49.590;11.026;2023-07-31T06:24:16;17.50;99.90
29281;DHT22;25048;49.590;11.026;2023-07-31T06:26:46;17.50;99.90
29281;DHT22;25048;49.590;11.026;2023-07-31T06:29:13;17.60;99.90
29281;DHT22;25048;49.590;11.026;2023-07-31T06:31:41;17.60;99.90
29281;DHT22;25048;49.590;11.026;2023-07-31T06:34:09;17.70;99.90
29281;DHT22;25048;49.590;11.026;2023-07-31T06:36:36;17.80;99.90
29281;DHT22;25048;49.590;11.026;2023-07-31T06:39:04;17.90;99.90
29281;DHT22;25048;49.590;11.026;2023-07-31T06:41:31;18.00;99.90
29281;DHT22;25048;49.590;11.026;2023-07-31T06:43:59;18.10;99.90
29281;DHT22;25048;49.590;11.026;2023-07-31T06:46:26;18.20;99.90
29281;DHT22;25048;49.590;11.026;2023-07-31T06:48:54;18.30;99.90
29281;DHT22;25048;49.590;11.026;2023-07-31T06:51:21;18.40;99.90
29281;DHT22;25048;49.590;11.026;2023-07-31T06:53:49;18.50;99.90
29281;DHT22;25048;49.590;11.026;2023-07-31T06:56:16;18.60;99.90
29281;DHT22;25048;49.590;11.026;2023-07-31T06:58:44;18.80;99.90
29281;DHT22;25048;49.590;11.026;2023-07-31T07:01:11;18.90;99.90
29281;DHT22;25048;49.590;11.026;2023-07-31T07:03:39;19.10;99.90
29281;DHT22;25048;49.590;11.026;2023-07-31T07:06:06;19.20;99.90
29281;DHT22;25048;49.590;11.026;2023-07-31T07:08:34;19.30;99.90
29281;DHT22;25048;49.590;11.026;2023-07-31T07:11:01;19.30;99.90
29281;DHT22;25048;49.590;11.026;2023-07-31T07:13:29;19.40;99.90
29281;DHT22;25048;49.590;11.026;2023-07-31T07:15:56;19.40;99.90
29281;DHT22;25048;49.590;11.026;2023-07-31T07:18:24;19.50;99.90
29281;DHT22;25048;49.590;11.026;2023-07-31T07:20:52;19.50;99.90
29281;DHT22;25048;49.590;11.026;2023-07-31T07:23:21;19.60;99.90
29281;DHT22;25048;49.590;11.026;2023-07-31T07:25:48;19.50;99.90
29281;DHT22;25048;49.590;11.026;2023-07-31T07:28:16;19.50;99.90
29281;DHT22;25048;49.590;11.026;2023-07-31T07:30:43;19.50;99.90
29281;DHT22;25048;49.590;11.026;2023-07-31T07:33:11;19.40;99.90
29281;DHT22;25048;49.590;11.026;2023-07-31T07:35:39;19.30;99.90
29281;DHT22;25048;49.590;11.026;2023-07-31T07:38:06;19.20;99.90
29281;DHT22;25048;49.590;11.026;2023-07-31T07:40:39;19.20;99.90
29281;DHT22;25048;49.590;11.026;2023-07-31T07:43:06;19.20;99.90
29281;DHT22;25048;49.590;11.026;2023-07-31T07:45:34;19.10;99.90
29281;DHT22;25048;49.590;11.026;2023-07-31T07:48:01;19.10;99.90
29281;DHT22;25048;49.590;11.026;2023-07-31T07:50:29;19.10;99.90
29281;DHT22;25048;49.590;11.026;2023-07-31T07:52:56;19.20;99.90
29281;DHT22;25048;49.590;11.026;2023-07-31T07:55:24;19.20;99.90
29281;DHT22;25048;49.590;11.026;2023-07-31T07:57:51;19.30;99.90
29281;DHT22;25048;49.590;11.026;2023-07-31T08:00:19;19.30;99.90
29281;DHT22;25048;49.590;11.026;2023-07-31T08:02:46;19.40;99.90
29281;DHT22;25048;49.590;11.026;2023-07-31T08:05:14;19.50;99.90
29281;DHT22;25048;49.590;11.026;2023-07-31T08:07:43;19.60;99.90
29281;DHT22;25048;49.590;11.026;2023-07-31T08:10:11;19.70;99.90
29281;DHT22;25048;49.590;11.026;2023-07-31T08:12:38;19.80;99.90
29281;DHT22;25048;49.590;11.026;2023-07-31T08:15:06;20.00;99.90
29281;DHT22;25048;49.590;11.026;2023-07-31T08:17:34;20.20;99.90
29281;DHT22;25048;49.590;11.026;2023-07-31T08:20:01;20.40;99.90
29281;DHT22;25048;49.590;11.026;2023-07-31T08:22:29;20.70;99.90
29281;DHT22;25048;49.590;11.026;2023-07-31T08:24:56;20.90;99.90
29281;DHT22;25048;49.590;11.026;2023-07-31T08:27:24;21.00;99.90
29281;DHT22;25048;49.590;11.026;2023-07-31T08:29:52;21.10;99.90
29281;DHT22;25048;49.590;11.026;2023-07-31T08:32:20;21.10;99.90
29281;DHT22;25048;49.590;11.026;2023-07-31T08:34:47;21.10;99.90
29281;DHT22;25048;49.590;11.026;2023-07-31T08:37:15;21.30;99.90
29281;DHT22;25048;49.590;11.026;2023-07-31T08:39:43;21.50;99.90
29281;DHT22;25048;49.590;11.026;2023-07-31T08:42:10;21.60;99.90
29281;DHT22;25048;49.590;11.026;2023-07-31T08:44:38;21.70;99.90
29281;DHT22;25048;49.590;11.026;2023-07-31T08:47:06;21.80;99.90
29281;DHT22;25048;49.590;11.026;2023-07-31T08:49:34;21.80;99.90
29281;DHT22;25048;49.590;11.026;2023-07-31T08:52:02;22.00;99.90
29281;DHT22;25048;49.590;11.026;2023-07-31T08:54:30;22.20;99.90
29281;DHT22;25048;49.590;11.026;2023-07-31T08:57:00;22.40;99.90
29281;DHT22;25048;49.590;11.026;2023-07-31T08:59:30;22.60;99.90
29281;DHT22;25048;49.590;11.026;2023-07-31T09:02:05;22.80;99.90
29281;DHT22;25048;49.590;11.026;2023-07-31T09:04:29;22.90;99.90
29281;DHT22;25048;49.590;11.026;2023-07-31T09:07:00;22.90;99.90
29281;DHT22;25048;49.590;11.026;2023-07-31T09:09:28;22.80;99.90
29281;DHT22;25048;49.590;11.026;2023-07-31T09:11:57;22.80;99.90
29281;DHT22;25048;49.590;11.026;2023-07-31T09:14:28;22.80;99.90
29281;DHT22;25048;49.590;11.026;2023-07-31T09:16:57;22.90;99.90
29281;DHT22;25048;49.590;11.026;2023-07-31T09:19:33;23.00;99.90
29281;DHT22;25048;49.590;11.026;2023-07-31T09:22:03;23.10;99.90
29281;DHT22;25048;49.590;11.026;2023-07-31T09:24:32;23.10;99.90
29281;DHT22;25048;49.590;11.026;2023-07-31T09:27:01;23.20;99.90
29281;DHT22;25048;49.590;11.026;2023-07-31T09:29:29;23.10;99.90
29281;DHT22;25048;49.590;11.026;2023-07-31T09:31:57;23.10;99.90
29281;DHT22;25048;49.590;11.026;2023-07-31T09:34:38;23.10;99.90
29281;DHT22;25048;49.590;11.026;2023-07-31T09:37:08;23.10;99.90
29281;DHT22;25048;49.590;11.026;2023-07-31T09:39:47;23.10;99.90
29281;DHT22;25048;49.590;11.026;2023-07-31T09:42:24;23.00;99.90
29281;DHT22;25048;49.590;11.026;2023-07-31T09:44:45;22.80;99.90
29281;DHT22;25048;49.590;11.026;2023-07-31T09:47:23;22.50;99.90
29281;DHT22;25048;49.590;11.026;2023-07-31T09:49:51;22.40;99.90
29281;DHT22;25048;49.590;11.026;2023-07-31T09:52:19;22.30;99.90
29281;DHT22;25048;49.590;11.026;2023-07-31T09:54:46;22.30;99.90
29281;DHT22;25048;49.590;11.026;2023-07-31T09:57:15;22.40;99.90
29281;DHT22;25048;49.590;11.026;2023-07-31T09:59:47;22.40;99.90
29281;DHT22;25048;49.590;11.026;2023-07-31T10:02:20;22.30;99.90
29281;DHT22;25048;49.590;11.026;2023-07-31T10:04:53;22.20;99.90
29281;DHT22;25048;49.590;11.026;2023-07-31T10:07:18;22.20;99.90
29281;DHT22;25048;49.590;11.026;2023-07-31T10:09:47;22.30;99.90
29281;DHT22;25048;49.590;11.026;2023-07-31T10:12:18;22.50;99.90
29281;DHT22;25048;49.590;11.026;2023-07-31T10:14:46;22.60;99.90
29281;DHT22;25048;49.590;11.026;2023-07-31T10:17:14;22.60;99.90
29281;DHT22;25048;49.590;11.026;2023-07-31T10:19:43;22.60;99.90
29281;DHT22;25048;49.590;11.026;2023-07-31T10:22:12;22.50;99.90
29281;DHT22;25048;49.590;11.026;2023-07-31T10:24:41;22.50;99.90
29281;DHT22;25048;49.590;11.026;2023-07-31T10:27:10;22.60;99.90
29281;DHT22;25048;49.590;11.026;2023-07-31T10:29:40;22.70;99.90
29281;DHT22;25048;49.590;11.026;2023-07-31T10:32:10;22.70;99.90
29281;DHT22;25048;49.590;11.026;2023-07-31T10:34:39;23.10;99.90
29281;DHT22;25048;49.590;11.026;2023-07-31T10:37:23;23.60;99.90
29281;DHT22;25048;49.590;11.026;2023-07-31T10:40:05;24.00;99.90
29281;DHT22;25048;49.590;11.026;2023-07-31T10:42:35;24.30;99.90
29281;DHT22;25048;49.590;11.026;2023-07-31T10:45:07;24.60;99.90
29281;DHT22;25048;49.590;11.026;2023-07-31T10:50:16;24.80;99.90
29281;DHT22;25048;49.590;11.026;2023-07-31T10:52:47;24.70;99.90
29281;DHT22;25048;49.590;11.026;2023-07-31T10:55:39;24.60;99.90
29281;DHT22;25048;49.590;11.026;2023-07-31T10:58:11;24.40;99.90
29281;DHT22;25048;49.590;11.026;2023-07-31T11:00:43;24.00;99.90
29281;DHT22;25048;49.590;11.026;2023-07-31T11:03:18;23.70;99.90
29281;DHT22;25048;49.590;11.026;2023-07-31T11:05:51;23.40;99.90
29281;DHT22;25048;49.590;11.026;2023-07-31T11:08:24;23.10;99.90
29281;DHT22;25048;49.590;11.026;2023-07-31T11:13:39;22.80;99.90
29281;DHT22;25048;49.590;11.026;2023-07-31T11:16:08;22.70;99.90
29281;DHT22;25048;49.590;11.026;2023-07-31T11:18:38;22.60;99.90
29281;DHT22;25048;49.590;11.026;2023-07-31T11:21:08;22.70;99.90
29281;DHT22;25048;49.590;11.026;2023-07-31T11:23:37;22.70;99.90
29281;DHT22;25048;49.590;11.026;2023-07-31T11:26:06;22.70;99.90
29281;DHT22;25048;49.590;11.026;2023-07-31T11:28:35;22.60;99.90
29281;DHT22;25048;49.590;11.026;2023-07-31T11:31:03;22.60;99.90
29281;DHT22;25048;49.590;11.026;2023-07-31T11:33:31;22.50;99.90
29281;DHT22;25048;49.590;11.026;2023-07-31T11:35:58;22.50;99.90
29281;DHT22;25048;49.590;11.026;2023-07-31T11:38:28;22.50;99.90
29281;DHT22;25048;49.590;11.026;2023-07-31T11:40:58;22.50;99.90
29281;DHT22;25048;49.590;11.026;2023-07-31T11:43:26;22.50;99.90
29281;DHT22;25048;49.590;11.026;2023-07-31T11:45:56;22.50;99.90
29281;DHT22;25048;49.590;11.026;2023-07-31T11:48:26;22.50;99.90
29281;DHT22;25048;49.590;11.026;2023-07-31T11:50:59;22.40;99.90
29281;DHT22;25048;49.590;11.026;2023-07-31T11:53:38;22.40;99.90
29281;DHT22;25048;49.590;11.026;2023-07-31T11:56:08;22.40;99.90
29281;DHT22;25048;49.590;11.026;2023-07-31T11:58:38;22.30;99.90
29281;DHT22;25048;49.590;11.026;2023-07-31T12:01:07;22.30;99.90
29281;DHT22;25048;49.590;11.026;2023-07-31T12:03:35;22.20;99.90
29281;DHT22;25048;49.590;11.026;2023-07-31T12:06:02;22.20;99.90
29281;DHT22;25048;49.590;11.026;2023-07-31T12:11:10;22.20;99.90
29281;DHT22;25048;49.590;11.026;2023-07-31T12:13:53;22.30;99.90
29281;DHT22;25048;49.590;11.026;2023-07-31T12:16:26;22.40;99.90
29281;DHT22;25048;49.590;11.026;2023-07-31T12:18:59;22.40;99.90
29281;DHT22;25048;49.590;11.026;2023-07-31T12:21:32;22.50;99.90
29281;DHT22;25048;49.590;11.026;2023-07-31T12:24:04;22.40;99.90
29281;DHT22;25048;49.590;11.026;2023-07-31T12:26:46;22.40;99.90
29281;DHT22;25048;49.590;11.026;2023-07-31T12:29:20;22.40;99.90
29281;DHT22;25048;49.590;11.026;2023-07-31T12:31:53;22.40;99.90
29281;DHT22;25048;49.590;11.026;2023-07-31T12:34:23;22.40;99.90
29281;DHT22;25048;49.590;11.026;2023-07-31T12:37:02;22.40;99.90
29281;DHT22;25048;49.590;11.026;2023-07-31T12:39:31;22.40;99.90
29281;DHT22;25048;49.590;11.026;2023-07-31T12:42:00;22.40;99.90
29281;DHT22;25048;49.590;11.026;2023-07-31T12:44:28;22.40;99.90
29281;DHT22;25048;49.590;11.026;2023-07-31T12:46:58;22.40;99.90
29281;DHT22;25048;49.590;11.026;2023-07-31T12:49:30;22.50;99.90
29281;DHT22;25048;49.590;11.026;2023-07-31T12:52:09;22.80;99.90
29281;DHT22;25048;49.590;11.026;2023-07-31T12:54:42;22.90;99.90
29281;DHT22;25048;49.590;11.026;2023-07-31T12:57:14;23.10;99.90
29281;DHT22;25048;49.590;11.026;2023-07-31T13:02:54;23.40;99.90
29281;DHT22;25048;49.590;11.026;2023-07-31T13:05:36;23.60;99.90
29281;DHT22;25048;49.590;11.026;2023-07-31T13:08:15;23.60;99.90
29281;DHT22;25048;49.590;11.026;2023-07-31T13:10:52;23.60;99.90
29281;DHT22;25048;49.590;11.026;2023-07-31T13:13:26;23.60;99.90
29281;DHT22;25048;49.590;11.026;2023-07-31T13:15:58;23.90;99.90
29281;DHT22;25048;49.590;11.026;2023-07-31T13:18:32;24.20;99.90
29281;DHT22;25048;49.590;11.026;2023-07-31T13:21:10;24.30;99.90
29281;DHT22;25048;49.590;11.026;2023-07-31T13:23:40;24.20;99.60
29281;DHT22;25048;49.590;11.026;2023-07-31T13:26:09;24.20;99.90
29281;DHT22;25048;49.590;11.026;2023-07-31T13:28:39;24.20;99.90
29281;DHT22;25048;49.590;11.026;2023-07-31T13:31:09;24.20;99.90
29281;DHT22;25048;49.590;11.026;2023-07-31T13:33:37;24.10;99.90
29281;DHT22;25048;49.590;11.026;2023-07-31T13:36:05;23.90;99.90
29281;DHT22;25048;49.590;11.026;2023-07-31T13:38:32;23.80;99.90
29281;DHT22;25048;49.590;11.026;2023-07-31T13:41:00;23.80;99.90
29281;DHT22;25048;49.590;11.026;2023-07-31T13:43:27;23.90;99.90
29281;DHT22;25048;49.590;11.026;2023-07-31T13:45:55;23.90;99.90
29281;DHT22;25048;49.590;11.026;2023-07-31T13:48:23;23.90;99.90
29281;DHT22;25048;49.590;11.026;2023-07-31T13:50:51;24.00;99.90
29281;DHT22;25048;49.590;11.026;2023-07-31T13:53:19;24.10;99.90
29281;DHT22;25048;49.590;11.026;2023-07-31T13:55:47;24.20;99.90
29281;DHT22;25048;49.590;11.026;2023-07-31T13:58:15;24.30;99.90
29281;DHT22;25048;49.590;11.026;2023-07-31T14:00:43;24.40;99.90
29281;DHT22;25048;49.590;11.026;2023-07-31T14:03:10;24.30;99.90
29281;DHT22;25048;49.590;11.026;2023-07-31T14:05:38;24.40;99.90
29281;DHT22;25048;49.590;11.026;2023-07-31T14:08:05;24.50;99.90
29281;DHT22;25048;49.590;11.026;2023-07-31T14:10:33;24.70;99.80
29281;DHT22;25048;49.590;11.026;2023-07-31T14:13:00;24.70;99.90
29281;DHT22;25048;49.590;11.026;2023-07-31T14:15:28;24.60;99.90
29281;DHT22;25048;49.590;11.026;2023-07-31T14:17:55;24.70;99.90
29281;DHT22;25048;49.590;11.026;2023-07-31T14:20:23;24.60;99.90
29281;DHT22;25048;49.590;11.026;2023-07-31T14:22:50;24.50;99.70
29281;DHT22;25048;49.590;11.026;2023-07-31T14:25:18;24.40;99.40
29281;DHT22;25048;49.590;11.026;2023-07-31T14:27:45;24.30;99.70
29281;DHT22;25048;49.590;11.026;2023-07-31T14:30:13;24.20;99.80
29281;DHT22;25048;49.590;11.026;2023-07-31T14:32:40;24.10;99.90
29281;DHT22;25048;49.590;11.026;2023-07-31T14:35:08;24.00;99.90
29281;DHT22;25048;49.590;11.026;2023-07-31T14:37:43;23.80;99.90
29281;DHT22;25048;49.590;11.026;2023-07-31T14:40:12;23.70;99.90
29281;DHT22;25048;49.590;11.026;2023-07-31T14:42:40;23.60;99.90
29281;DHT22;25048;49.590;11.026;2023-07-31T14:45:08;23.50;99.90
29281;DHT22;25048;49.590;11.026;2023-07-31T14:47:36;23.40;99.90
29281;DHT22;25048;49.590;11.026;2023-07-31T14:50:04;23.30;99.90
29281;DHT22;25048;49.590;11.026;2023-07-31T14:52:32;23.30;99.90
29281;DHT22;25048;49.590;11.026;2023-07-31T14:55:00;23.20;99.90
29281;DHT22;25048;49.590;11.026;2023-07-31T14:57:27;23.20;99.90
29281;DHT22;25048;49.590;11.026;2023-07-31T14:59:55;23.20;99.90
29281;DHT22;25048;49.590;11.026;2023-07-31T15:02:22;23.10;99.90
29281;DHT22;25048;49.590;11.026;2023-07-31T15:04:50;23.10;99.90
29281;DHT22;25048;49.590;11.026;2023-07-31T15:07:18;23.10;99.90
29281;DHT22;25048;49.590;11.026;2023-07-31T15:09:45;23.00;99.90
29281;DHT22;25048;49.590;11.026;2023-07-31T15:12:14;22.90;99.90
29281;DHT22;25048;49.590;11.026;2023-07-31T15:14:42;22.90;99.90
29281;DHT22;25048;49.590;11.026;2023-07-31T15:17:09;22.90;99.90
29281;DHT22;25048;49.590;11.026;2023-07-31T15:19:37;22.90;99.90
29281;DHT22;25048;49.590;11.026;2023-07-31T15:22:06;22.80;99.90
29281;DHT22;25048;49.590;11.026;2023-07-31T15:24:34;22.80;99.90
29281;DHT22;25048;49.590;11.026;2023-07-31T15:27:02;22.80;99.90
29281;DHT22;25048;49.590;11.026;2023-07-31T15:29:30;22.80;99.90
29281;DHT22;25048;49.590;11.026;2023-07-31T15:31:59;22.80;99.90
29281;DHT22;25048;49.590;11.026;2023-07-31T15:34:26;22.70;99.90
29281;DHT22;25048;49.590;11.026;2023-07-31T15:36:54;22.70;99.90
29281;DHT22;25048;49.590;11.026;2023-07-31T15:39:21;22.70;99.90